sensor_id;sensor_type;location;lat;lon;timestamp;temperature;humidity
20771;DHT22;10545;36.536;23.064;2023-08-24T08:56:46;35.50;65.10
20771;DHT22;10545;36.536;23.064;2023-08-24T08:59:14;35.70;65.40
20771;DHT22;10545;36.536;23.064;2023-08-24T09:01:41;35.90;69.50
20771;DHT22;10545;36.536;23.064;2023-08-24T09:04:10;35.60;64.80
20771;DHT22;10545;36.536;23.064;2023-08-24T09:06:38;36.00;64.00
20771;DHT22;10545;36.536;23.064;2023-08-24T09:09:04;36.10;63.10
20771;DHT22;10545;36.536;23.064;2023-08-24T09:11:30;36.20;61.60
20771;DHT22;10545;36.536;23.064;2023-08-24T09:13:56;36.20;61.90
20771;DHT22;10545;36.536;23.064;2023-08-24T09:16:29;36.10;60.70
20771;DHT22;10545;36.536;23.064;2023-08-24T09:18:55;36.10;60.30
20771;DHT22;10545;36.536;23.064;2023-08-24T09:21:24;36.20;60.70
20771;DHT22;10545;36.536;23.064;2023-08-24T09:23:55;36.40;60.50
20771;DHT22;10545;36.536;23.064;2023-08-24T09:26:36;36.30;60.40
20771;DHT22;10545;36.536;23.064;2023-08-24T09:29:13;36.30;59.90
20771;DHT22;10545;36.536;23.064;2023-08-24T09:31:39;36.40;59.30
20771;DHT22;10545;36.536;23.064;2023-08-24T09:34:06;36.30;59.50
20771;DHT22;10545;36.536;23.064;2023-08-24T09:36:36;36.20;58.70
20771;DHT22;10545;36.536;23.064;2023-08-24T09:39:04;36.20;59.20
20771;DHT22;10545;36.536;23.064;2023-08-24T09:44:05;36.40;59.20
20771;DHT22;10545;36.536;23.064;2023-08-24T09:46:32;36.60;59.00
20771;DHT22;10545;36.536;23.064;2023-08-24T09:48:58;36.80;58.90
20771;DHT22;10545;36.536;23.064;2023-08-24T09:51:27;36.80;58.30
20771;DHT22;10545;36.536;23.064;2023-08-24T09:53:57;36.70;58.30
20771;DHT22;10545;36.536;23.064;2023-08-24T09:56:28;36.60;58.70
20771;DHT22;10545;36.536;23.064;2023-08-24T09:58:57;36.60;58.30
20771;DHT22;10545;36.536;23.064;2023-08-24T10:01:26;36.60;58.20
20771;DHT22;10545;36.536;23.064;2023-08-24T10:03:54;36.50;58.30
20771;DHT22;10545;36.536;23.064;2023-08-24T10:06:24;36.40;58.00
20771;DHT22;10545;36.536;23.064;2023-08-24T10:08:57;36.40;58.30
20771;DHT22;10545;36.536;23.064;2023-08-24T10:11:29;36.50;58.40
20771;DHT22;10545;36.536;23.064;2023-08-24T10:14:04;36.50;58.40
20771;DHT22;10545;36.536;23.064;2023-08-24T10:16:33;36.50;58.10
20771;DHT22;10545;36.536;23.064;2023-08-24T10:19:02;36.60;58.20
20771;DHT22;10545;36.536;23.064;2023-08-24T10:21:29;36.60;58.00
20771;DHT22;10545;36.536;23.064;2023-08-24T10:23:59;36.70;58.10
20771;DHT22;10545;36.536;23.064;2023-08-24T10:26:27;36.80;57.90
20771;DHT22;10545;36.536;23.064;2023-08-24T10:28:53;37.00;58.10
20771;DHT22;10545;36.536;23.064;2023-08-24T10:31:20;37.10;58.30
20771;DHT22;10545;36.536;23.064;2023-08-24T10:33:48;38.30;63.30
20771;DHT22;10545;36.536;23.064;2023-08-24T10:36:15;37.40;59.80
20771;DHT22;10545;36.536;23.064;2023-08-24T10:38:42;37.50;57.30
20771;DHT22;10545;36.536;23.064;2023-08-24T10:41:09;37.50;56.50
20771;DHT22;10545;36.536;23.064;2023-08-24T10:43:48;37.50;57.90
20771;DHT22;10545;36.536;23.064;2023-08-24T10:46:15;37.40;57.50
20771;DHT22;10545;36.536;23.064;2023-08-24T10:53:47;37.40;57.00
20771;DHT22;10545;36.536;23.064;2023-08-24T10:56:16;37.40;57.50
20771;DHT22;10545;36.536;23.064;2023-08-24T10:58:47;37.30;57.10
20771;DHT22;10545;36.536;23.064;2023-08-24T11:01:20;37.40;56.70
20771;DHT22;10545;36.536;23.064;2023-08-24T11:03:55;37.50;56.50
20771;DHT22;10545;36.536;23.064;2023-08-24T11:06:22;37.40;56.00
20771;DHT22;10545;36.536;23.064;2023-08-24T11:09:05;37.40;55.40
20771;DHT22;10545;36.536;23.064;2023-08-24T11:11:33;37.20;56.50
20771;DHT22;10545;36.536;23.064;2023-08-24T11:14:18;37.30;56.70
20771;DHT22;10545;36.536;23.064;2023-08-24T11:16:48;37.40;56.30
20771;DHT22;10545;36.536;23.064;2023-08-24T11:19:15;37.50;56.20
20771;DHT22;10545;36.536;23.064;2023-08-24T11:21:45;37.70;56.50
20771;DHT22;10545;36.536;23.064;2023-08-24T11:24:15;37.80;56.10
20771;DHT22;10545;36.536;23.064;2023-08-24T11:26:49;38.10;56.10
20771;DHT22;10545;36.536;23.064;2023-08-24T11:29:15;38.10;56.30
20771;DHT22;10545;36.536;23.064;2023-08-24T11:31:44;38.10;56.00
20771;DHT22;10545;36.536;23.064;2023-08-24T11:34:10;38.10;56.00
20771;DHT22;10545;36.536;23.064;2023-08-24T11:36:47;38.30;56.00
20771;DHT22;10545;36.536;23.064;2023-08-24T11:39:19;38.30;54.90
20771;DHT22;10545;36.536;23.064;2023-08-24T11:42:03;38.40;55.20
20771;DHT22;10545;36.536;23.064;2023-08-24T11:44:49;38.40;54.10
20771;DHT22;10545;36.536;23.064;2023-08-24T11:47:16;38.30;54.70
20771;DHT22;10545;36.536;23.064;2023-08-24T11:49:42;38.10;55.00
20771;DHT22;10545;36.536;23.064;2023-08-24T11:52:09;37.90;55.50
20771;DHT22;10545;36.536;23.064;2023-08-24T11:54:36;37.80;55.00
20771;DHT22;10545;36.536;23.064;2023-08-24T11:57:08;37.60;55.00
20771;DHT22;10545;36.536;23.064;2023-08-24T11:59:38;37.60;55.50
20771;DHT22;10545;36.536;23.064;2023-08-24T12:02:05;37.60;56.00
20771;DHT22;10545;36.536;23.064;2023-08-24T12:04:41;37.70;56.20
20771;DHT22;10545;36.536;23.064;2023-08-24T12:07:11;37.90;55.60
20771;DHT22;10545;36.536;23.064;2023-08-24T12:09:39;38.00;55.40
20771;DHT22;10545;36.536;23.064;2023-08-24T12:12:11;37.80;54.90
20771;DHT22;10545;36.536;23.064;2023-08-24T12:14:45;37.60;55.30
20771;DHT22;10545;36.536;23.064;2023-08-24T12:17:12;37.60;55.70
20771;DHT22;10545;36.536;23.064;2023-08-24T12:20:02;37.80;55.20
20771;DHT22;10545;36.536;23.064;2023-08-24T12:22:32;37.90;55.40
20771;DHT22;10545;36.536;23.064;2023-08-24T12:24:58;38.00;55.50
20771;DHT22;10545;36.536;23.064;2023-08-24T12:27:27;38.20;55.20
20771;DHT22;10545;36.536;23.064;2023-08-24T12:29:53;38.20;54.90
20771;DHT22;10545;36.536;23.064;2023-08-24T12:32:21;38.30;54.90
20771;DHT22;10545;36.536;23.064;2023-08-24T12:34:49;38.40;54.80
20771;DHT22;10545;36.536;23.064;2023-08-24T12:37:17;38.50;55.00
20771;DHT22;10545;36.536;23.064;2023-08-24T12:39:43;38.50;54.70
20771;DHT22;10545;36.536;23.064;2023-08-24T12:42:09;38.30;54.40
20771;DHT22;10545;36.536;23.064;2023-08-24T12:44:35;38.20;55.00
20771;DHT22;10545;36.536;23.064;2023-08-24T12:47:03;38.20;54.60
20771;DHT22;10545;36.536;23.064;2023-08-24T12:49:29;38.20;54.80
20771;DHT22;10545;36.536;23.064;2023-08-24T12:51:55;38.20;54.80
20771;DHT22;10545;36.536;23.064;2023-08-24T12:54:21;38.40;55.00
20771;DHT22;10545;36.536;23.064;2023-08-24T12:56:48;38.40;53.90
20771;DHT22;10545;36.536;23.064;2023-08-24T12:59:14;38.30;54.40
20771;DHT22;10545;36.536;23.064;2023-08-24T13:01:40;38.10;54.50
20771;DHT22;10545;36.536;23.064;2023-08-24T13:04:06;38.10;54.90
20771;DHT22;10545;36.536;23.064;2023-08-24T13:06:32;38.10;55.60
20771;DHT22;10545;36.536;23.064;2023-08-24T13:09:00;38.30;56.00
20771;DHT22;10545;36.536;23.064;2023-08-24T13:11:26;38.50;55.70
20771;DHT22;10545;36.536;23.064;2023-08-24T13:13:52;38.60;55.50
20771;DHT22;10545;36.536;23.064;2023-08-24T13:16:18;38.70;55.10
20771;DHT22;10545;36.536;23.064;2023-08-24T13:18:44;38.90;54.80
20771;DHT22;10545;36.536;23.064;2023-08-24T13:21:10;39.00;54.80
20771;DHT22;10545;36.536;23.064;2023-08-24T13:23:36;39.20;54.70
20771;DHT22;10545;36.536;23.064;2023-08-24T13:26:02;39.30;54.70
20771;DHT22;10545;36.536;23.064;2023-08-24T13:28:28;39.50;54.70
20771;DHT22;10545;36.536;23.064;2023-08-24T13:30:55;39.60;54.70
20771;DHT22;10545;36.536;23.064;2023-08-24T13:33:21;39.70;54.70
20771;DHT22;10545;36.536;23.064;2023-08-24T13:35:47;39.70;54.30
20771;DHT22;10545;36.536;23.064;2023-08-24T13:38:13;39.70;55.30
20771;DHT22;10545;36.536;23.064;2023-08-24T13:40:39;39.20;65.90
20771;DHT22;10545;36.536;23.064;2023-08-24T13:43:05;38.80;65.50
20771;DHT22;10545;36.536;23.064;2023-08-24T13:45:31;37.90;69.50
20771;DHT22;10545;36.536;23.064;2023-08-24T13:48:00;37.20;70.80
20771;DHT22;10545;36.536;23.064;2023-08-24T13:50:26;36.70;70.10
20771;DHT22;10545;36.536;23.064;2023-08-24T13:52:52;36.30;70.90
20771;DHT22;10545;36.536;23.064;2023-08-24T13:55:18;35.90;72.20
20771;DHT22;10545;36.536;23.064;2023-08-24T13:57:45;35.60;73.00
20771;DHT22;10545;36.536;23.064;2023-08-24T14:00:11;35.60;71.60
20771;DHT22;10545;36.536;23.064;2023-08-24T14:02:37;35.50;71.50
20771;DHT22;10545;36.536;23.064;2023-08-24T14:05:04;35.50;70.70
20771;DHT22;10545;36.536;23.064;2023-08-24T14:07:35;35.40;71.60
20771;DHT22;10545;36.536;23.064;2023-08-24T14:10:02;35.30;72.30
20771;DHT22;10545;36.536;23.064;2023-08-24T14:12:30;35.20;73.50
20771;DHT22;10545;36.536;23.064;2023-08-24T14:14:56;35.10;74.30
20771;DHT22;10545;36.536;23.064;2023-08-24T14:17:22;35.00;74.50
20771;DHT22;10545;36.536;23.064;2023-08-24T14:19:48;35.10;76.60
20771;DHT22;10545;36.536;23.064;2023-08-24T14:22:14;35.20;78.90
20771;DHT22;10545;36.536;23.064;2023-08-24T14:24:40;35.20;80.30
20771;DHT22;10545;36.536;23.064;2023-08-24T14:27:06;35.20;81.30
20771;DHT22;10545;36.536;23.064;2023-08-24T14:29:32;35.20;82.40
20771;DHT22;10545;36.536;23.064;2023-08-24T14:31:58;35.30;82.90
20771;DHT22;10545;36.536;23.064;2023-08-24T14:34:24;35.50;80.70
20771;DHT22;10545;36.536;23.064;2023-08-24T14:36:50;35.50;80.60
20771;DHT22;10545;36.536;23.064;2023-08-24T14:39:16;35.30;80.90
20771;DHT22;10545;36.536;23.064;2023-08-24T14:41:42;35.10;80.60
20771;DHT22;10545;36.536;23.064;2023-08-24T14:44:09;35.00;77.70
20771;DHT22;10545;36.536;23.064;2023-08-24T14:46:35;34.80;77.90
20771;DHT22;10545;36.536;23.064;2023-08-24T14:49:01;34.60;81.60
20771;DHT22;10545;36.536;23.064;2023-08-24T14:51:27;34.60;82.50
20771;DHT22;10545;36.536;23.064;2023-08-24T14:53:53;34.50;84.70
20771;DHT22;10545;36.536;23.064;2023-08-24T14:56:19;34.50;85.50
20771;DHT22;10545;36.536;23.064;2023-08-24T14:58:45;34.40;88.10
20771;DHT22;10545;36.536;23.064;2023-08-24T15:01:11;34.40;90.00
20771;DHT22;10545;36.536;23.064;2023-08-24T15:03:37;34.40;91.70
20771;DHT22;10545;36.536;23.064;2023-08-24T15:06:05;34.60;92.90
20771;DHT22;10545;36.536;23.064;2023-08-24T15:08:33;34.70;93.60
20771;DHT22;10545;36.536;23.064;2023-08-24T15:11:01;34.70;94.30
20771;DHT22;10545;36.536;23.064;2023-08-24T15:13:29;34.70;94.70
20771;DHT22;10545;36.536;23.064;2023-08-24T15:15:57;34.70;95.40
20771;DHT22;10545;36.536;23.064;2023-08-24T15:18:25;34.70;95.10
20771;DHT22;10545;36.536;23.064;2023-08-24T15:20:51;34.70;94.70
20771;DHT22;10545;36.536;23.064;2023-08-24T15:23:26;34.70;93.70
20771;DHT22;10545;36.536;23.064;2023-08-24T15:25:55;34.70;93.80
20771;DHT22;10545;36.536;23.064;2023-08-24T15:28:22;34.70;93.80
20771;DHT22;10545;36.536;23.064;2023-08-24T15:30:48;34.60;92.90
20771;DHT22;10545;36.536;23.064;2023-08-24T15:33:15;34.50;92.80
20771;DHT22;10545;36.536;23.064;2023-08-24T15:35:41;34.50;93.00
20771;DHT22;10545;36.536;23.064;2023-08-24T15:38:11;34.40;94.20
20771;DHT22;10545;36.536;23.064;2023-08-24T15:40:38;34.20;94.20
20771;DHT22;10545;36.536;23.064;2023-08-24T15:43:05;34.10;93.90
20771;DHT22;10545;36.536;23.064;2023-08-24T15:45:32;34.10;93.60
20771;DHT22;10545;36.536;23.064;2023-08-24T15:47:59;34.20;93.10
20771;DHT22;10545;36.536;23.064;2023-08-24T15:50:26;34.20;93.30
20771;DHT22;10545;36.536;23.064;2023-08-24T15:52:52;34.10;93.50
20771;DHT22;10545;36.536;23.064;2023-08-24T15:55:32;34.00;93.50
20771;DHT22;10545;36.536;23.064;2023-08-24T15:58:00;34.00;94.20
20771;DHT22;10545;36.536;23.064;2023-08-24T16:00:27;33.90;95.00
20771;DHT22;10545;36.536;23.064;2023-08-24T16:02:53;33.90;96.00
20771;DHT22;10545;36.536;23.064;2023-08-24T16:05:19;33.80;97.10
20771;DHT22;10545;36.536;23.064;2023-08-24T16:07:45;33.40;98.40
20771;DHT22;10545;36.536;23.064;2023-08-24T16:10:11;33.30;98.30
20771;DHT22;10545;36.536;23.064;2023-08-24T16:12:37;33.10;99.70
20771;DHT22;10545;36.536;23.064;2023-08-24T16:15:04;32.70;99.90
20771;DHT22;10545;36.536;23.064;2023-08-24T16:17:31;32.50;99.90
20771;DHT22;10545;36.536;23.064;2023-08-24T16:19:57;32.20;99.90
20771;DHT22;10545;36.536;23.064;2023-08-24T16:22:23;32.00;99.90
20771;DHT22;10545;36.536;23.064;2023-08-24T16:24:49;31.90;99.90
20771;DHT22;10545;36.536;23.064;2023-08-24T16:27:15;31.80;99.90
20771;DHT22;10545;36.536;23.064;2023-08-24T16:29:41;31.90;99.90
20771;DHT22;10545;36.536;23.064;2023-08-24T16:32:08;31.90;99.90
20771;DHT22;10545;36.536;23.064;2023-08-24T16:34:34;32.00;99.90
20771;DHT22;10545;36.536;23.064;2023-08-24T16:37:00;32.00;99.90
20771;DHT22;10545;36.536;23.064;2023-08-24T16:39:29;32.00;99.90
20771;DHT22;10545;36.536;23.064;2023-08-24T16:41:56;32.00;99.90
20771;DHT22;10545;36.536;23.064;2023-08-24T16:44:22;32.00;99.90
20771;DHT22;10545;36.536;23.064;2023-08-24T16:46:48;32.00;99.90
20771;DHT22;10545;36.536;23.064;2023-08-24T16:49:14;31.90;99.90
20771;DHT22;10545;36.536;23.064;2023-08-24T16:51:40;31.90;99.90
20771;DHT22;10545;36.536;23.064;2023-08-24T16:54:06;32.00;99.90
20771;DHT22;10545;36.536;23.064;2023-08-24T16:56:32;31.90;99.90
20771;DHT22;10545;36.536;23.064;2023-08-24T16:58:58;31.90;99.90
20771;DHT22;10545;36.536;23.064;2023-08-24T17:01:24;31.80;99.90
20771;DHT22;10545;36.536;23.064;2023-08-24T17:03:50;31.70;99.90
20771;DHT22;10545;36.536;23.064;2023-08-24T17:06:16;31.60;99.90
20771;DHT22;10545;36.536;23.064;2023-08-24T17:08:42;31.60;99.90
20771;DHT22;10545;36.536;23.064;2023-08-24T17:11:08;31.60;99.90
20771;DHT22;10545;36.536;23.064;2023-08-24T17:13:34;31.60;99.90
20771;DHT22;10545;36.536;23.064;2023-08-24T17:16:00;31.60;99.90
20771;DHT22;10545;36.536;23.064;2023-08-24T17:18:26;31.50;99.90
20771;DHT22;10545;36.536;23.064;2023-08-24T17:20:52;31.50;99.90
20771;DHT22;10545;36.536;23.064;2023-08-24T17:23:18;31.40;99.90
20771;DHT22;10545;36.536;23.064;2023-08-24T17:25:45;31.40;99.90
20771;DHT22;10545;36.536;23.064;2023-08-24T17:28:12;31.30;99.90
20771;DHT22;10545;36.536;23.064;2023-08-24T17:30:38;31.30;99.90
20771;DHT22;10545;36.536;23.064;2023-08-24T17:33:05;31.30;99.90
20771;DHT22;10545;36.536;23.064;2023-08-24T17:35:31;31.30;99.90
20771;DHT22;10545;36.536;23.064;2023-08-24T17:37:57;31.30;99.90
20771;DHT22;10545;36.536;23.064;2023-08-24T17:40:24;31.30;99.90
20771;DHT22;10545;36.536;23.064;2023-08-24T17:42:50;31.20;99.90
20771;DHT22;10545;36.536;23.064;2023-08-24T17:45:16;31.10;99.90
20771;DHT22;10545;36.536;23.064;2023-08-24T17:47:48;31.10;99.90
20771;DHT22;10545;36.536;23.064;2023-08-24T17:50:18;31.10;99.90
20771;DHT22;10545;36.536;23.064;2023-08-24T17:52:44;31.10;99.90
20771;DHT22;10545;36.536;23.064;2023-08-24T17:55:10;31.10;99.90
20771;DHT22;10545;36.536;23.064;2023-08-24T17:57:36;31.20;99.90
20771;DHT22;10545;36.536;23.064;2023-08-24T18:00:03;31.20;99.90
20771;DHT22;10545;36.536;23.064;2023-08-24T18:02:32;31.20;99.90
20771;DHT22;10545;36.536;23.064;2023-08-24T18:04:58;31.20;99.90
20771;DHT22;10545;36.536;23.064;2023-08-24T18:07:24;31.20;99.90
20771;DHT22;10545;36.536;23.064;2023-08-24T18:09:50;31.20;99.90
20771;DHT22;10545;36.536;23.064;2023-08-24T18:12:16;31.20;99.90
20771;DHT22;10545;36.536;23.064;2023-08-24T18:14:42;31.20;99.90
20771;DHT22;10545;36.536;23.064;2023-08-24T18:17:09;31.10;99.90
20771;DHT22;10545;36.536;23.064;2023-08-24T18:19:35;31.10;99.90
20771;DHT22;10545;36.536;23.064;2023-08-24T18:22:01;31.10;99.90
20771;DHT22;10545;36.536;23.064;2023-08-24T18:24:27;31.10;99.90
20771;DHT22;10545;36.536;23.064;2023-08-24T18:26:53;31.00;99.90
20771;DHT22;10545;36.536;23.064;2023-08-24T18:29:23;30.90;99.90
20771;DHT22;10545;36.536;23.064;2023-08-24T18:31:50;30.80;99.90
20771;DHT22;10545;36.536;23.064;2023-08-24T18:34:17;30.70;99.90
20771;DHT22;10545;36.536;23.064;2023-08-24T18:36:43;30.60;99.90
20771;DHT22;10545;36.536;23.064;2023-08-24T18:39:09;30.50;99.90
20771;DHT22;10545;36.536;23.064;2023-08-24T18:41:35;30.40;99.90
20771;DHT22;10545;36.536;23.064;2023-08-24T18:44:02;30.30;99.90
20771;DHT22;10545;36.536;23.064;2023-08-24T18:46:29;30.30;99.90
20771;DHT22;10545;36.536;23.064;2023-08-24T18:48:55;30.20;99.90
20771;DHT22;10545;36.536;23.064;2023-08-24T18:51:21;30.20;99.90
20771;DHT22;10545;36.536;23.064;2023-08-24T18:53:48;30.20;99.90
20771;DHT22;10545;36.536;23.064;2023-08-24T18:56:15;30.20;99.90
20771;DHT22;10545;36.536;23.064;2023-08-24T18:58:42;30.30;99.90
20771;DHT22;10545;36.536;23.064;2023-08-24T19:01:13;30.30;99.90
20771;DHT22;10545;36.536;23.064;2023-08-24T19:03:43;30.30;99.90
20771;DHT22;10545;36.536;23.064;2023-08-24T19:06:11;30.30;99.90
20771;DHT22;10545;36.536;23.064;2023-08-24T19:08:37;30.30;99.90
20771;DHT22;10545;36.536;23.064;2023-08-24T19:11:04;30.30;99.90
20771;DHT22;10545;36.536;23.064;2023-08-24T19:13:30;30.30;99.90
20771;DHT22;10545;36.536;23.064;2023-08-24T19:16:01;30.30;99.90
20771;DHT22;10545;36.536;23.064;2023-08-24T19:18:28;30.30;99.90
20771;DHT22;10545;36.536;23.064;2023-08-24T19:20:54;30.30;99.90
20771;DHT22;10545;36.536;23.064;2023-08-24T19:23:20;30.30;99.90
20771;DHT22;10545;36.536;23.064;2023-08-24T19:25:47;30.20;99.90
20771;DHT22;10545;36.536;23.064;2023-08-24T19:28:13;30.30;99.90
20771;DHT22;10545;36.536;23.064;2023-08-24T19:30:40;30.20;99.90
20771;DHT22;10545;36.536;23.064;2023-08-24T19:33:07;30.20;99.90
20771;DHT22;10545;36.536;23.064;2023-08-24T19:35:34;30.10;99.90
20771;DHT22;10545;36.536;23.064;2023-08-24T19:38:01;30.00;99.90
20771;DHT22;10545;36.536;23.064;2023-08-24T19:40:29;29.90;99.90
20771;DHT22;10545;36.536;23.064;2023-08-24T19:42:55;29.90;99.90
20771;DHT22;10545;36.536;23.064;2023-08-24T19:45:22;29.90;99.90
20771;DHT22;10545;36.536;23.064;2023-08-24T19:47:50;29.80;99.90
20771;DHT22;10545;36.536;23.064;2023-08-24T19:50:16;29.80;99.90
20771;DHT22;10545;36.536;23.064;2023-08-24T19:52:43;29.80;99.90
20771;DHT22;10545;36.536;23.064;2023-08-24T19:55:10;29.80;99.90
20771;DHT22;10545;36.536;23.064;2023-08-24T19:57:39;29.80;99.90
20771;DHT22;10545;36.536;23.064;2023-08-24T20:00:06;29.80;99.90
20771;DHT22;10545;36.536;23.064;2023-08-24T20:02:33;29.80;99.90
20771;DHT22;10545;36.536;23.064;2023-08-24T20:04:59;29.70;99.90
20771;DHT22;10545;36.536;23.064;2023-08-24T20:07:25;29.70;99.90
20771;DHT22;10545;36.536;23.064;2023-08-24T20:09:52;29.70;99.90
20771;DHT22;10545;36.536;23.064;2023-08-24T20:12:18;29.70;99.90
20771;DHT22;10545;36.536;23.064;2023-08-24T20:14:46;29.70;99.90
20771;DHT22;10545;36.536;23.064;2023-08-24T20:17:12;29.70;99.90
20771;DHT22;10545;36.536;23.064;2023-08-24T20:19:38;29.60;99.90
20771;DHT22;10545;36.536;23.064;2023-08-24T20:22:05;29.60;99.90
20771;DHT22;10545;36.536;23.064;2023-08-24T20:24:32;29.60;99.90
20771;DHT22;10545;36.536;23.064;2023-08-24T20:26:59;29.50;99.90
20771;DHT22;10545;36.536;23.064;2023-08-24T20:29:25;29.50;99.90
20771;DHT22;10545;36.536;23.064;2023-08-24T20:31:52;29.50;99.90
20771;DHT22;10545;36.536;23.064;2023-08-24T20:34:20;29.50;99.90
20771;DHT22;10545;36.536;23.064;2023-08-24T20:36:48;29.50;99.90
20771;DHT22;10545;36.536;23.064;2023-08-24T20:39:16;29.40;99.90
20771;DHT22;10545;36.536;23.064;2023-08-24T20:41:45;29.40;99.90
20771;DHT22;10545;36.536;23.064;2023-08-24T20:44:12;29.40;99.90
20771;DHT22;10545;36.536;23.064;2023-08-24T20:46:38;29.40;99.90
20771;DHT22;10545;36.536;23.064;2023-08-24T20:49:04;29.30;99.90
20771;DHT22;10545;36.536;23.064;2023-08-24T20:51:31;29.30;99.90
20771;DHT22;10545;36.536;23.064;2023-08-24T20:53:57;29.30;99.90
20771;DHT22;10545;36.536;23.064;2023-08-24T20:56:25;29.20;99.90
20771;DHT22;10545;36.536;23.064;2023-08-24T20:58:51;29.20;99.90
20771;DHT22;10545;36.536;23.064;2023-08-24T21:01:17;29.10;99.90
20771;DHT22;10545;36.536;23.064;2023-08-24T21:03:43;29.10;99.90
20771;DHT22;10545;36.536;23.064;2023-08-24T21:06:09;29.10;99.90
20771;DHT22;10545;36.536;23.064;2023-08-24T21:08:36;29.00;99.90
20771;DHT22;10545;36.536;23.064;2023-08-24T21:11:02;29.00;99.90
20771;DHT22;10545;36.536;23.064;2023-08-24T21:13:28;28.90;99.90
20771;DHT22;10545;36.536;23.064;2023-08-24T21:15:58;28.90;99.90
20771;DHT22;10545;36.536;23.064;2023-08-24T21:18:25;28.90;99.90
20771;DHT22;10545;36.536;23.064;2023-08-24T21:20:58;28.90;99.90
20771;DHT22;10545;36.536;23.064;2023-08-24T21:23:24;28.90;99.90
20771;DHT22;10545;36.536;23.064;2023-08-24T21:25:50;28.90;99.90
20771;DHT22;10545;36.536;23.064;2023-08-24T21:28:17;28.90;99.90
20771;DHT22;10545;36.536;23.064;2023-08-24T21:30:43;28.90;99.90
20771;DHT22;10545;36.536;23.064;2023-08-24T21:33:12;28.90;99.90
20771;DHT22;10545;36.536;23.064;2023-08-24T21:35:38;28.90;99.90
20771;DHT22;10545;36.536;23.064;2023-08-24T21:38:05;28.90;99.90
20771;DHT22;10545;36.536;23.064;2023-08-24T21:40:31;28.80;99.90
20771;DHT22;10545;36.536;23.064;2023-08-24T21:42:57;28.80;99.90
20771;DHT22;10545;36.536;23.064;2023-08-24T21:45:23;28.80;99.90
20771;DHT22;10545;36.536;23.064;2023-08-24T21:47:49;28.80;99.90
20771;DHT22;10545;36.536;23.064;2023-08-24T21:50:15;28.70;99.90
20771;DHT22;10545;36.536;23.064;2023-08-24T21:52:41;28.70;99.90
20771;DHT22;10545;36.536;23.064;2023-08-24T21:55:07;28.70;99.90
20771;DHT22;10545;36.536;23.064;2023-08-24T21:57:34;28.70;99.90
20771;DHT22;10545;36.536;23.064;2023-08-24T22:00:00;28.70;99.90
20771;DHT22;10545;36.536;23.064;2023-08-24T22:02:26;28.70;99.90
20771;DHT22;10545;36.536;23.064;2023-08-24T22:04:52;28.70;99.90
20771;DHT22;10545;36.536;23.064;2023-08-24T22:07:18;28.70;99.90
20771;DHT22;10545;36.536;23.064;2023-08-24T22:09:44;28.60;99.90
20771;DHT22;10545;36.536;23.064;2023-08-24T22:12:10;28.60;99.90
20771;DHT22;10545;36.536;23.064;2023-08-24T22:14:36;28.60;99.90
20771;DHT22;10545;36.536;23.064;2023-08-24T22:17:02;28.60;99.90
20771;DHT22;10545;36.536;23.064;2023-08-24T22:19:29;28.60;99.90
20771;DHT22;10545;36.536;23.064;2023-08-24T22:21:55;28.60;99.90
20771;DHT22;10545;36.536;23.064;2023-08-24T22:24:21;28.60;99.90
20771;DHT22;10545;36.536;23.064;2023-08-24T22:26:47;28.50;99.90
20771;DHT22;10545;36.536;23.064;2023-08-24T22:29:13;28.50;99.90
20771;DHT22;10545;36.536;23.064;2023-08-24T22:31:39;28.50;99.90
20771;DHT22;10545;36.536;23.064;2023-08-24T22:34:05;28.50;99.90
20771;DHT22;10545;36.536;23.064;2023-08-24T22:36:31;28.50;99.90
20771;DHT22;10545;36.536;23.064;2023-08-24T22:38:59;28.50;99.90
20771;DHT22;10545;36.536;23.064;2023-08-24T22:41:25;28.50;99.90
20771;DHT22;10545;36.536;23.064;2023-08-24T22:43:51;28.40;99.90
20771;DHT22;10545;36.536;23.064;2023-08-24T22:46:18;28.40;99.90
20771;DHT22;10545;36.536;23.064;2023-08-24T22:48:44;28.40;99.90
20771;DHT22;10545;36.536;23.064;2023-08-24T22:51:10;28.40;99.90
20771;DHT22;10545;36.536;23.064;2023-08-24T22:53:36;28.30;99.90
20771;DHT22;10545;36.536;23.064;2023-08-24T22:56:02;28.30;99.90
20771;DHT22;10545;36.536;23.064;2023-08-24T22:58:28;28.30;99.90
20771;DHT22;10545;36.536;23.064;2023-08-24T23:00:54;28.20;99.90
20771;DHT22;10545;36.536;23.064;2023-08-24T23:03:20;28.30;99.90
20771;DHT22;10545;36.536;23.064;2023-08-24T23:05:46;28.20;99.90
20771;DHT22;10545;36.536;23.064;2023-08-24T23:08:12;28.20;99.90
20771;DHT22;10545;36.536;23.064;2023-08-24T23:10:38;28.20;99.90
20771;DHT22;10545;36.536;23.064;2023-08-24T23:13:04;28.20;99.90
20771;DHT22;10545;36.536;23.064;2023-08-24T23:15:30;28.20;99.90
20771;DHT22;10545;36.536;23.064;2023-08-24T23:17:56;28.10;99.90
20771;DHT22;10545;36.536;23.064;2023-08-24T23:20:22;28.10;99.90
20771;DHT22;10545;36.536;23.064;2023-08-24T23:22:48;28.10;99.90
20771;DHT22;10545;36.536;23.064;2023-08-24T23:25:14;28.10;99.90
20771;DHT22;10545;36.536;23.064;2023-08-24T23:27:41;28.10;99.90
20771;DHT22;10545;36.536;23.064;2023-08-24T23:30:07;28.10;99.90
20771;DHT22;10545;36.536;23.064;2023-08-24T23:32:33;28.00;99.90
20771;DHT22;10545;36.536;23.064;2023-08-24T23:35:00;28.00;99.90
20771;DHT22;10545;36.536;23.064;2023-08-24T23:37:25;28.00;99.90
20771;DHT22;10545;36.536;23.064;2023-08-24T23:39:51;28.00;99.90
20771;DHT22;10545;36.536;23.064;2023-08-24T23:42:21;28.00;99.90
20771;DHT22;10545;36.536;23.064;2023-08-24T23:44:48;28.00;99.90
20771;DHT22;10545;36.536;23.064;2023-08-24T23:47:15;27.90;99.90
20771;DHT22;10545;36.536;23.064;2023-08-24T23:49:44;27.90;99.90
20771;DHT22;10545;36.536;23.064;2023-08-24T23:52:10;27.90;99.90
20771;DHT22;10545;36.536;23.064;2023-08-24T23:54:36;27.90;99.90
20771;DHT22;10545;36.536;23.064;2023-08-24T23:57:02;27.90;99.90
20771;DHT22;10545;36.536;23.064;2023-08-24T23:59:29;27.80;99.90
